sensor_id;sensor_type;location;lat;lon;timestamp;P1;durP1;ratioP1;P2;durP2;ratioP2
71366;SDS011;60030;52.274;8.040;2023-01-19T00:00:32;12.00;;;7.03;;
71366;SDS011;60030;52.274;8.040;2023-01-19T00:03:01;11.60;;;6.60;;
71366;SDS011;60030;52.274;8.040;2023-01-19T00:05:29;10.07;;;6.90;;
71366;SDS011;60030;52.274;8.040;2023-01-19T00:07:58;10.17;;;6.27;;
71366;SDS011;60030;52.274;8.040;2023-01-19T00:10:38;9.83;;;6.77;;
71366;SDS011;60030;52.274;8.040;2023-01-19T00:13:06;10.03;;;6.60;;
71366;SDS011;60030;52.274;8.040;2023-01-19T00:15:33;12.27;;;6.33;;
71366;SDS011;60030;52.274;8.040;2023-01-19T00:18:02;9.40;;;6.60;;
71366;SDS011;60030;52.274;8.040;2023-01-19T00:20:29;11.70;;;7.27;;
71366;SDS011;60030;52.274;8.040;2023-01-19T00:22:57;12.63;;;6.70;;
71366;SDS011;60030;52.274;8.040;2023-01-19T00:25:24;10.13;;;7.37;;
71366;SDS011;60030;52.274;8.040;2023-01-19T00:27:51;9.70;;;6.93;;
71366;SDS011;60030;52.274;8.040;2023-01-19T00:30:18;9.20;;;7.27;;
71366;SDS011;60030;52.274;8.040;2023-01-19T00:32:45;12.17;;;7.40;;
71366;SDS011;60030;52.274;8.040;2023-01-19T00:35:13;13.33;;;7.30;;
71366;SDS011;60030;52.274;8.040;2023-01-19T00:37:40;10.67;;;7.30;;
71366;SDS011;60030;52.274;8.040;2023-01-19T00:40:10;10.20;;;7.20;;
71366;SDS011;60030;52.274;8.040;2023-01-19T00:42:38;11.20;;;7.70;;
71366;SDS011;60030;52.274;8.040;2023-01-19T00:45:09;13.83;;;7.60;;
71366;SDS011;60030;52.274;8.040;2023-01-19T00:47:37;12.43;;;6.80;;
71366;SDS011;60030;52.274;8.040;2023-01-19T00:50:05;11.37;;;8.20;;
71366;SDS011;60030;52.274;8.040;2023-01-19T00:52:37;11.37;;;7.90;;
71366;SDS011;60030;52.274;8.040;2023-01-19T00:55:05;11.60;;;7.53;;
71366;SDS011;60030;52.274;8.040;2023-01-19T00:57:33;15.87;;;8.07;;
71366;SDS011;60030;52.274;8.040;2023-01-19T01:00:00;11.50;;;7.37;;
71366;SDS011;60030;52.274;8.040;2023-01-19T01:02:31;12.17;;;8.73;;
71366;SDS011;60030;52.274;8.040;2023-01-19T01:04:58;14.40;;;8.00;;
71366;SDS011;60030;52.274;8.040;2023-01-19T01:07:27;10.23;;;7.20;;
71366;SDS011;60030;52.274;8.040;2023-01-19T01:09:56;13.33;;;8.17;;
71366;SDS011;60030;52.274;8.040;2023-01-19T01:12:23;13.60;;;8.77;;
71366;SDS011;60030;52.274;8.040;2023-01-19T01:14:51;12.30;;;8.93;;
71366;SDS011;60030;52.274;8.040;2023-01-19T01:17:18;9.70;;;7.57;;
71366;SDS011;60030;52.274;8.040;2023-01-19T01:19:49;18.97;;;9.10;;
71366;SDS011;60030;52.274;8.040;2023-01-19T01:22:16;13.70;;;9.00;;
71366;SDS011;60030;52.274;8.040;2023-01-19T01:24:44;12.77;;;7.87;;
71366;SDS011;60030;52.274;8.040;2023-01-19T01:27:12;13.33;;;8.07;;
71366;SDS011;60030;52.274;8.040;2023-01-19T01:29:39;14.50;;;8.93;;
71366;SDS011;60030;52.274;8.040;2023-01-19T01:32:12;11.27;;;8.13;;
71366;SDS011;60030;52.274;8.040;2023-01-19T01:34:39;13.10;;;9.00;;
71366;SDS011;60030;52.274;8.040;2023-01-19T01:37:06;13.40;;;8.73;;
71366;SDS011;60030;52.274;8.040;2023-01-19T01:39:33;16.87;;;9.57;;
71366;SDS011;60030;52.274;8.040;2023-01-19T01:42:01;12.17;;;8.77;;
71366;SDS011;60030;52.274;8.040;2023-01-19T01:44:43;15.10;;;9.20;;
71366;SDS011;60030;52.274;8.040;2023-01-19T01:47:17;13.03;;;8.40;;
71366;SDS011;60030;52.274;8.040;2023-01-19T01:49:55;11.97;;;8.87;;
71366;SDS011;60030;52.274;8.040;2023-01-19T01:52:27;15.57;;;9.10;;
71366;SDS011;60030;52.274;8.040;2023-01-19T01:54:57;13.23;;;8.93;;
71366;SDS011;60030;52.274;8.040;2023-01-19T01:57:25;14.83;;;8.67;;
71366;SDS011;60030;52.274;8.040;2023-01-19T01:59:54;11.87;;;8.43;;
71366;SDS011;60030;52.274;8.040;2023-01-19T02:02:24;11.20;;;7.87;;
71366;SDS011;60030;52.274;8.040;2023-01-19T02:05:13;13.47;;;8.97;;
71366;SDS011;60030;52.274;8.040;2023-01-19T02:07:45;12.73;;;9.73;;
71366;SDS011;60030;52.274;8.040;2023-01-19T02:10:33;11.63;;;8.87;;
71366;SDS011;60030;52.274;8.040;2023-01-19T02:13:18;14.10;;;9.00;;
71366;SDS011;60030;52.274;8.040;2023-01-19T02:15:47;13.43;;;9.80;;
71366;SDS011;60030;52.274;8.040;2023-01-19T02:18:17;16.33;;;9.60;;
71366;SDS011;60030;52.274;8.040;2023-01-19T02:20:47;13.17;;;8.77;;
71366;SDS011;60030;52.274;8.040;2023-01-19T02:23:26;15.33;;;9.70;;
71366;SDS011;60030;52.274;8.040;2023-01-19T02:26:00;14.27;;;9.53;;
71366;SDS011;60030;52.274;8.040;2023-01-19T02:28:28;14.37;;;10.03;;
71366;SDS011;60030;52.274;8.040;2023-01-19T02:30:56;16.07;;;10.33;;
71366;SDS011;60030;52.274;8.040;2023-01-19T02:33:23;15.17;;;10.23;;
71366;SDS011;60030;52.274;8.040;2023-01-19T02:35:50;14.87;;;10.40;;
71366;SDS011;60030;52.274;8.040;2023-01-19T02:38:18;17.03;;;9.97;;
71366;SDS011;60030;52.274;8.040;2023-01-19T02:40:47;14.23;;;9.80;;
71366;SDS011;60030;52.274;8.040;2023-01-19T02:43:16;16.97;;;10.33;;
71366;SDS011;60030;52.274;8.040;2023-01-19T02:45:44;14.50;;;10.37;;
71366;SDS011;60030;52.274;8.040;2023-01-19T02:48:12;19.20;;;11.33;;
71366;SDS011;60030;52.274;8.040;2023-01-19T02:50:43;15.10;;;10.07;;
71366;SDS011;60030;52.274;8.040;2023-01-19T02:53:20;14.67;;;10.17;;
71366;SDS011;60030;52.274;8.040;2023-01-19T02:56:20;14.33;;;10.60;;
71366;SDS011;60030;52.274;8.040;2023-01-19T02:58:56;15.40;;;10.60;;
71366;SDS011;60030;52.274;8.040;2023-01-19T03:01:31;18.27;;;10.73;;
71366;SDS011;60030;52.274;8.040;2023-01-19T03:04:10;17.97;;;10.63;;
71366;SDS011;60030;52.274;8.040;2023-01-19T03:06:48;20.73;;;10.60;;
71366;SDS011;60030;52.274;8.040;2023-01-19T03:09:20;14.97;;;9.83;;
71366;SDS011;60030;52.274;8.040;2023-01-19T03:11:58;15.90;;;10.83;;
71366;SDS011;60030;52.274;8.040;2023-01-19T03:14:31;15.60;;;10.30;;
71366;SDS011;60030;52.274;8.040;2023-01-19T03:17:04;18.57;;;10.87;;
71366;SDS011;60030;52.274;8.040;2023-01-19T03:19:35;18.03;;;10.50;;
71366;SDS011;60030;52.274;8.040;2023-01-19T03:22:06;16.53;;;9.73;;
71366;SDS011;60030;52.274;8.040;2023-01-19T03:24:39;16.43;;;11.43;;
71366;SDS011;60030;52.274;8.040;2023-01-19T03:27:13;16.70;;;10.97;;
71366;SDS011;60030;52.274;8.040;2023-01-19T03:29:44;19.10;;;10.73;;
71366;SDS011;60030;52.274;8.040;2023-01-19T03:32:17;17.67;;;10.43;;
71366;SDS011;60030;52.274;8.040;2023-01-19T03:34:49;15.60;;;10.83;;
71366;SDS011;60030;52.274;8.040;2023-01-19T03:37:17;17.13;;;10.70;;
71366;SDS011;60030;52.274;8.040;2023-01-19T03:39:46;18.73;;;12.23;;
71366;SDS011;60030;52.274;8.040;2023-01-19T03:42:15;15.17;;;9.83;;
71366;SDS011;60030;52.274;8.040;2023-01-19T03:44:43;15.63;;;10.67;;
71366;SDS011;60030;52.274;8.040;2023-01-19T03:47:14;17.53;;;10.33;;
71366;SDS011;60030;52.274;8.040;2023-01-19T03:49:44;16.13;;;10.70;;
71366;SDS011;60030;52.274;8.040;2023-01-19T03:52:13;14.67;;;9.33;;
71366;SDS011;60030;52.274;8.040;2023-01-19T03:54:40;15.77;;;9.67;;
71366;SDS011;60030;52.274;8.040;2023-01-19T03:57:07;14.43;;;10.50;;
71366;SDS011;60030;52.274;8.040;2023-01-19T03:59:36;17.13;;;10.13;;
71366;SDS011;60030;52.274;8.040;2023-01-19T04:02:03;17.50;;;11.80;;
71366;SDS011;60030;52.274;8.040;2023-01-19T04:04:30;18.60;;;10.83;;
71366;SDS011;60030;52.274;8.040;2023-01-19T04:06:58;17.70;;;9.90;;
71366;SDS011;60030;52.274;8.040;2023-01-19T04:09:25;13.43;;;9.43;;
71366;SDS011;60030;52.274;8.040;2023-01-19T04:11:52;15.40;;;10.27;;
71366;SDS011;60030;52.274;8.040;2023-01-19T04:14:20;14.03;;;10.13;;
71366;SDS011;60030;52.274;8.040;2023-01-19T04:16:48;15.20;;;9.33;;
71366;SDS011;60030;52.274;8.040;2023-01-19T04:19:15;15.93;;;10.17;;
71366;SDS011;60030;52.274;8.040;2023-01-19T04:21:42;14.77;;;9.43;;
71366;SDS011;60030;52.274;8.040;2023-01-19T04:24:09;16.50;;;10.57;;
71366;SDS011;60030;52.274;8.040;2023-01-19T04:26:36;16.20;;;10.50;;
71366;SDS011;60030;52.274;8.040;2023-01-19T04:29:03;14.53;;;10.60;;
71366;SDS011;60030;52.274;8.040;2023-01-19T04:31:30;17.80;;;9.87;;
71366;SDS011;60030;52.274;8.040;2023-01-19T04:34:01;15.43;;;10.73;;
71366;SDS011;60030;52.274;8.040;2023-01-19T04:36:28;15.30;;;10.27;;
71366;SDS011;60030;52.274;8.040;2023-01-19T04:38:55;17.87;;;10.80;;
71366;SDS011;60030;52.274;8.040;2023-01-19T04:41:22;14.03;;;9.87;;
71366;SDS011;60030;52.274;8.040;2023-01-19T04:43:49;16.30;;;10.70;;
71366;SDS011;60030;52.274;8.040;2023-01-19T04:46:16;16.37;;;10.93;;
71366;SDS011;60030;52.274;8.040;2023-01-19T04:48:43;14.83;;;9.90;;
71366;SDS011;60030;52.274;8.040;2023-01-19T04:51:11;15.97;;;9.93;;
71366;SDS011;60030;52.274;8.040;2023-01-19T04:53:38;14.00;;;9.43;;
71366;SDS011;60030;52.274;8.040;2023-01-19T04:56:06;13.67;;;9.13;;
71366;SDS011;60030;52.274;8.040;2023-01-19T04:58:33;13.37;;;9.27;;
71366;SDS011;60030;52.274;8.040;2023-01-19T05:01:00;15.63;;;9.90;;
71366;SDS011;60030;52.274;8.040;2023-01-19T05:03:32;15.87;;;9.73;;
71366;SDS011;60030;52.274;8.040;2023-01-19T05:05:59;13.90;;;9.53;;
71366;SDS011;60030;52.274;8.040;2023-01-19T05:08:27;14.63;;;9.27;;
71366;SDS011;60030;52.274;8.040;2023-01-19T05:10:54;15.93;;;10.03;;
71366;SDS011;60030;52.274;8.040;2023-01-19T05:13:22;15.73;;;9.20;;
71366;SDS011;60030;52.274;8.040;2023-01-19T05:15:49;11.60;;;8.77;;
71366;SDS011;60030;52.274;8.040;2023-01-19T05:18:16;13.10;;;8.13;;
71366;SDS011;60030;52.274;8.040;2023-01-19T05:20:43;13.87;;;8.63;;
71366;SDS011;60030;52.274;8.040;2023-01-19T05:23:10;17.30;;;9.80;;
71366;SDS011;60030;52.274;8.040;2023-01-19T05:25:38;12.67;;;8.13;;
71366;SDS011;60030;52.274;8.040;2023-01-19T05:28:05;14.00;;;9.13;;
71366;SDS011;60030;52.274;8.040;2023-01-19T05:30:32;10.83;;;8.63;;
71366;SDS011;60030;52.274;8.040;2023-01-19T05:33:00;11.53;;;8.53;;
71366;SDS011;60030;52.274;8.040;2023-01-19T05:35:27;13.23;;;8.53;;
71366;SDS011;60030;52.274;8.040;2023-01-19T05:37:54;12.07;;;7.70;;
71366;SDS011;60030;52.274;8.040;2023-01-19T05:40:21;12.80;;;8.27;;
71366;SDS011;60030;52.274;8.040;2023-01-19T05:42:49;11.00;;;8.30;;
71366;SDS011;60030;52.274;8.040;2023-01-19T05:45:17;10.90;;;7.93;;
71366;SDS011;60030;52.274;8.040;2023-01-19T05:47:44;10.73;;;8.30;;
71366;SDS011;60030;52.274;8.040;2023-01-19T05:50:11;10.83;;;7.77;;
71366;SDS011;60030;52.274;8.040;2023-01-19T05:52:38;12.40;;;7.43;;
71366;SDS011;60030;52.274;8.040;2023-01-19T05:55:06;10.13;;;7.30;;
71366;SDS011;60030;52.274;8.040;2023-01-19T05:57:33;11.07;;;7.07;;
71366;SDS011;60030;52.274;8.040;2023-01-19T06:00:02;10.10;;;6.70;;
71366;SDS011;60030;52.274;8.040;2023-01-19T06:02:34;9.90;;;7.40;;
71366;SDS011;60030;52.274;8.040;2023-01-19T06:05:01;10.03;;;7.00;;
71366;SDS011;60030;52.274;8.040;2023-01-19T06:07:29;8.50;;;6.77;;
71366;SDS011;60030;52.274;8.040;2023-01-19T06:09:56;8.73;;;6.13;;
71366;SDS011;60030;52.274;8.040;2023-01-19T06:12:23;9.63;;;6.70;;
71366;SDS011;60030;52.274;8.040;2023-01-19T06:14:50;9.20;;;6.30;;
71366;SDS011;60030;52.274;8.040;2023-01-19T06:17:18;6.80;;;5.90;;
71366;SDS011;60030;52.274;8.040;2023-01-19T06:19:46;7.47;;;6.00;;
71366;SDS011;60030;52.274;8.040;2023-01-19T06:22:13;7.97;;;6.20;;
71366;SDS011;60030;52.274;8.040;2023-01-19T06:24:40;6.47;;;5.67;;
71366;SDS011;60030;52.274;8.040;2023-01-19T06:27:07;7.07;;;6.13;;
71366;SDS011;60030;52.274;8.040;2023-01-19T06:29:35;7.90;;;5.17;;
71366;SDS011;60030;52.274;8.040;2023-01-19T06:32:03;7.43;;;4.87;;
71366;SDS011;60030;52.274;8.040;2023-01-19T06:34:32;7.23;;;6.37;;
71366;SDS011;60030;52.274;8.040;2023-01-19T06:36:59;8.50;;;6.30;;
71366;SDS011;60030;52.274;8.040;2023-01-19T06:39:26;6.97;;;5.57;;
71366;SDS011;60030;52.274;8.040;2023-01-19T06:41:53;6.80;;;5.80;;
71366;SDS011;60030;52.274;8.040;2023-01-19T06:44:20;6.80;;;5.80;;
71366;SDS011;60030;52.274;8.040;2023-01-19T06:46:47;6.30;;;5.30;;
71366;SDS011;60030;52.274;8.040;2023-01-19T06:49:14;7.30;;;5.90;;
71366;SDS011;60030;52.274;8.040;2023-01-19T06:51:42;6.43;;;5.37;;
71366;SDS011;60030;52.274;8.040;2023-01-19T06:54:09;7.77;;;6.07;;
71366;SDS011;60030;52.274;8.040;2023-01-19T06:56:36;6.40;;;5.40;;
71366;SDS011;60030;52.274;8.040;2023-01-19T06:59:03;8.27;;;5.70;;
71366;SDS011;60030;52.274;8.040;2023-01-19T07:01:30;5.70;;;5.10;;
71366;SDS011;60030;52.274;8.040;2023-01-19T07:03:58;5.33;;;4.80;;
71366;SDS011;60030;52.274;8.040;2023-01-19T07:06:25;8.03;;;4.90;;
71366;SDS011;60030;52.274;8.040;2023-01-19T07:08:54;6.17;;;5.07;;
71366;SDS011;60030;52.274;8.040;2023-01-19T07:11:22;8.33;;;5.20;;
71366;SDS011;60030;52.274;8.040;2023-01-19T07:13:52;6.57;;;5.50;;
71366;SDS011;60030;52.274;8.040;2023-01-19T07:16:19;7.30;;;5.70;;
71366;SDS011;60030;52.274;8.040;2023-01-19T07:18:47;5.83;;;5.20;;
71366;SDS011;60030;52.274;8.040;2023-01-19T07:21:15;6.73;;;5.50;;
71366;SDS011;60030;52.274;8.040;2023-01-19T07:23:42;7.00;;;4.63;;
71366;SDS011;60030;52.274;8.040;2023-01-19T07:26:10;4.73;;;4.30;;
71366;SDS011;60030;52.274;8.040;2023-01-19T07:28:39;5.60;;;4.43;;
71366;SDS011;60030;52.274;8.040;2023-01-19T07:31:07;4.50;;;4.10;;
71366;SDS011;60030;52.274;8.040;2023-01-19T07:33:34;4.63;;;4.03;;
71366;SDS011;60030;52.274;8.040;2023-01-19T07:36:01;5.47;;;4.00;;
71366;SDS011;60030;52.274;8.040;2023-01-19T07:38:29;4.53;;;4.10;;
71366;SDS011;60030;52.274;8.040;2023-01-19T07:40:59;3.93;;;3.43;;
71366;SDS011;60030;52.274;8.040;2023-01-19T07:43:28;4.60;;;4.13;;
71366;SDS011;60030;52.274;8.040;2023-01-19T07:45:55;4.87;;;3.93;;
71366;SDS011;60030;52.274;8.040;2023-01-19T07:48:23;4.70;;;4.03;;
71366;SDS011;60030;52.274;8.040;2023-01-19T07:50:50;5.63;;;4.63;;
71366;SDS011;60030;52.274;8.040;2023-01-19T07:53:17;5.47;;;4.07;;
71366;SDS011;60030;52.274;8.040;2023-01-19T07:55:44;5.13;;;4.33;;
71366;SDS011;60030;52.274;8.040;2023-01-19T07:58:11;5.20;;;4.53;;
71366;SDS011;60030;52.274;8.040;2023-01-19T08:00:40;5.17;;;4.33;;
71366;SDS011;60030;52.274;8.040;2023-01-19T08:03:08;4.90;;;4.30;;
71366;SDS011;60030;52.274;8.040;2023-01-19T08:05:35;5.77;;;4.23;;
71366;SDS011;60030;52.274;8.040;2023-01-19T08:08:02;5.03;;;4.23;;
71366;SDS011;60030;52.274;8.040;2023-01-19T08:10:30;5.03;;;4.10;;
71366;SDS011;60030;52.274;8.040;2023-01-19T08:12:58;4.47;;;4.03;;
71366;SDS011;60030;52.274;8.040;2023-01-19T08:15:25;4.17;;;3.77;;
71366;SDS011;60030;52.274;8.040;2023-01-19T08:17:57;4.17;;;3.77;;
71366;SDS011;60030;52.274;8.040;2023-01-19T08:20:26;5.40;;;4.10;;
71366;SDS011;60030;52.274;8.040;2023-01-19T08:22:54;7.30;;;3.70;;
71366;SDS011;60030;52.274;8.040;2023-01-19T08:25:24;6.10;;;3.80;;
71366;SDS011;60030;52.274;8.040;2023-01-19T08:27:53;4.70;;;3.37;;
71366;SDS011;60030;52.274;8.040;2023-01-19T08:30:21;3.70;;;3.40;;
71366;SDS011;60030;52.274;8.040;2023-01-19T08:32:51;4.17;;;3.33;;
71366;SDS011;60030;52.274;8.040;2023-01-19T08:35:20;3.67;;;3.10;;
71366;SDS011;60030;52.274;8.040;2023-01-19T08:37:48;4.10;;;3.20;;
71366;SDS011;60030;52.274;8.040;2023-01-19T08:40:15;4.40;;;2.80;;
71366;SDS011;60030;52.274;8.040;2023-01-19T08:42:44;4.27;;;3.10;;
71366;SDS011;60030;52.274;8.040;2023-01-19T08:45:11;3.03;;;2.77;;
71366;SDS011;60030;52.274;8.040;2023-01-19T08:47:38;3.67;;;2.70;;
71366;SDS011;60030;52.274;8.040;2023-01-19T08:50:05;4.30;;;2.80;;
71366;SDS011;60030;52.274;8.040;2023-01-19T08:52:36;3.80;;;3.37;;
71366;SDS011;60030;52.274;8.040;2023-01-19T08:55:03;4.70;;;3.00;;
71366;SDS011;60030;52.274;8.040;2023-01-19T08:57:31;4.77;;;3.20;;
71366;SDS011;60030;52.274;8.040;2023-01-19T08:59:58;4.27;;;3.33;;
71366;SDS011;60030;52.274;8.040;2023-01-19T09:02:25;5.07;;;3.30;;
71366;SDS011;60030;52.274;8.040;2023-01-19T09:04:52;6.83;;;3.43;;
71366;SDS011;60030;52.274;8.040;2023-01-19T09:07:19;4.90;;;3.20;;
71366;SDS011;60030;52.274;8.040;2023-01-19T09:09:48;5.97;;;3.43;;
71366;SDS011;60030;52.274;8.040;2023-01-19T09:12:15;4.47;;;3.50;;
71366;SDS011;60030;52.274;8.040;2023-01-19T09:14:42;5.87;;;3.63;;
71366;SDS011;60030;52.274;8.040;2023-01-19T09:17:09;6.10;;;3.47;;
71366;SDS011;60030;52.274;8.040;2023-01-19T09:19:36;4.83;;;3.93;;
71366;SDS011;60030;52.274;8.040;2023-01-19T09:22:03;6.43;;;3.80;;
71366;SDS011;60030;52.274;8.040;2023-01-19T09:24:30;7.13;;;3.93;;
71366;SDS011;60030;52.274;8.040;2023-01-19T09:27:00;8.43;;;4.47;;
71366;SDS011;60030;52.274;8.040;2023-01-19T09:29:27;5.90;;;4.50;;
71366;SDS011;60030;52.274;8.040;2023-01-19T09:31:54;11.40;;;4.57;;
71366;SDS011;60030;52.274;8.040;2023-01-19T09:34:22;7.00;;;4.80;;
71366;SDS011;60030;52.274;8.040;2023-01-19T09:36:49;7.73;;;4.03;;
71366;SDS011;60030;52.274;8.040;2023-01-19T09:39:17;8.50;;;4.60;;
71366;SDS011;60030;52.274;8.040;2023-01-19T09:41:44;9.70;;;4.93;;
71366;SDS011;60030;52.274;8.040;2023-01-19T09:44:17;12.47;;;4.27;;
71366;SDS011;60030;52.274;8.040;2023-01-19T09:46:51;8.93;;;4.27;;
71366;SDS011;60030;52.274;8.040;2023-01-19T09:49:26;7.30;;;4.03;;
71366;SDS011;60030;52.274;8.040;2023-01-19T09:51:58;7.13;;;4.10;;
71366;SDS011;60030;52.274;8.040;2023-01-19T09:54:28;9.33;;;4.13;;
71366;SDS011;60030;52.274;8.040;2023-01-19T09:57:00;6.13;;;3.27;;
71366;SDS011;60030;52.274;8.040;2023-01-19T09:59:29;8.57;;;3.60;;
71366;SDS011;60030;52.274;8.040;2023-01-19T10:02:02;6.80;;;3.73;;
71366;SDS011;60030;52.274;8.040;2023-01-19T10:04:33;6.83;;;3.13;;
71366;SDS011;60030;52.274;8.040;2023-01-19T10:07:09;6.03;;;3.40;;
71366;SDS011;60030;52.274;8.040;2023-01-19T10:09:47;6.13;;;3.30;;
71366;SDS011;60030;52.274;8.040;2023-01-19T10:12:30;9.20;;;2.97;;
71366;SDS011;60030;52.274;8.040;2023-01-19T10:15:13;7.33;;;3.00;;
71366;SDS011;60030;52.274;8.040;2023-01-19T10:17:48;7.63;;;3.07;;
71366;SDS011;60030;52.274;8.040;2023-01-19T10:20:21;5.27;;;2.73;;
71366;SDS011;60030;52.274;8.040;2023-01-19T10:22:54;6.23;;;2.80;;
71366;SDS011;60030;52.274;8.040;2023-01-19T10:25:23;4.33;;;2.27;;
71366;SDS011;60030;52.274;8.040;2023-01-19T10:27:50;6.30;;;2.70;;
71366;SDS011;60030;52.274;8.040;2023-01-19T10:30:20;7.27;;;2.90;;
71366;SDS011;60030;52.274;8.040;2023-01-19T10:32:49;8.23;;;2.57;;
71366;SDS011;60030;52.274;8.040;2023-01-19T10:35:18;7.80;;;2.63;;
71366;SDS011;60030;52.274;8.040;2023-01-19T10:37:49;8.80;;;3.13;;
71366;SDS011;60030;52.274;8.040;2023-01-19T10:40:25;9.30;;;3.17;;
71366;SDS011;60030;52.274;8.040;2023-01-19T10:42:57;13.07;;;2.87;;
71366;SDS011;60030;52.274;8.040;2023-01-19T10:45:26;11.43;;;2.80;;
71366;SDS011;60030;52.274;8.040;2023-01-19T10:47:56;6.93;;;2.67;;
71366;SDS011;60030;52.274;8.040;2023-01-19T10:50:26;8.73;;;2.53;;
71366;SDS011;60030;52.274;8.040;2023-01-19T10:52:55;7.03;;;2.73;;
71366;SDS011;60030;52.274;8.040;2023-01-19T10:55:25;9.73;;;3.00;;
71366;SDS011;60030;52.274;8.040;2023-01-19T10:57:54;12.57;;;3.10;;
71366;SDS011;60030;52.274;8.040;2023-01-19T11:00:31;7.37;;;2.43;;
71366;SDS011;60030;52.274;8.040;2023-01-19T11:03:00;9.60;;;2.30;;
71366;SDS011;60030;52.274;8.040;2023-01-19T11:05:28;5.97;;;2.20;;
71366;SDS011;60030;52.274;8.040;2023-01-19T11:07:57;7.37;;;2.57;;
71366;SDS011;60030;52.274;8.040;2023-01-19T11:10:24;7.00;;;2.50;;
71366;SDS011;60030;52.274;8.040;2023-01-19T11:12:54;9.60;;;2.40;;
71366;SDS011;60030;52.274;8.040;2023-01-19T11:15:32;7.67;;;2.50;;
71366;SDS011;60030;52.274;8.040;2023-01-19T11:18:01;9.70;;;2.67;;
71366;SDS011;60030;52.274;8.040;2023-01-19T11:20:33;8.90;;;2.73;;
71366;SDS011;60030;52.274;8.040;2023-01-19T11:23:16;12.37;;;3.13;;
71366;SDS011;60030;52.274;8.040;2023-01-19T11:25:48;11.30;;;2.93;;
71366;SDS011;60030;52.274;8.040;2023-01-19T11:28:16;9.80;;;2.17;;
71366;SDS011;60030;52.274;8.040;2023-01-19T11:30:56;8.77;;;2.30;;
71366;SDS011;60030;52.274;8.040;2023-01-19T11:33:26;11.30;;;2.70;;
71366;SDS011;60030;52.274;8.040;2023-01-19T11:36:03;8.57;;;2.97;;
71366;SDS011;60030;52.274;8.040;2023-01-19T11:38:35;7.23;;;2.60;;
71366;SDS011;60030;52.274;8.040;2023-01-19T11:41:10;10.63;;;2.77;;
71366;SDS011;60030;52.274;8.040;2023-01-19T11:43:43;12.40;;;2.80;;
71366;SDS011;60030;52.274;8.040;2023-01-19T11:46:12;8.10;;;2.40;;
71366;SDS011;60030;52.274;8.040;2023-01-19T11:48:41;5.43;;;2.07;;
71366;SDS011;60030;52.274;8.040;2023-01-19T11:51:12;5.97;;;2.27;;
71366;SDS011;60030;52.274;8.040;2023-01-19T11:53:41;9.87;;;2.43;;
71366;SDS011;60030;52.274;8.040;2023-01-19T11:56:15;9.73;;;2.63;;
71366;SDS011;60030;52.274;8.040;2023-01-19T11:58:44;9.97;;;2.50;;
71366;SDS011;60030;52.274;8.040;2023-01-19T12:01:16;10.90;;;2.60;;
71366;SDS011;60030;52.274;8.040;2023-01-19T12:03:50;9.53;;;2.53;;
71366;SDS011;60030;52.274;8.040;2023-01-19T12:06:23;7.33;;;2.23;;
71366;SDS011;60030;52.274;8.040;2023-01-19T12:08:53;8.40;;;2.67;;
71366;SDS011;60030;52.274;8.040;2023-01-19T12:11:24;10.37;;;2.43;;
71366;SDS011;60030;52.274;8.040;2023-01-19T12:13:56;7.57;;;2.20;;
71366;SDS011;60030;52.274;8.040;2023-01-19T12:16:25;5.33;;;2.27;;
71366;SDS011;60030;52.274;8.040;2023-01-19T12:18:55;6.37;;;2.07;;
71366;SDS011;60030;52.274;8.040;2023-01-19T12:21:25;6.03;;;1.87;;
71366;SDS011;60030;52.274;8.040;2023-01-19T12:23:55;7.60;;;2.10;;
71366;SDS011;60030;52.274;8.040;2023-01-19T12:26:34;5.03;;;2.23;;
71366;SDS011;60030;52.274;8.040;2023-01-19T12:29:04;10.53;;;2.53;;
71366;SDS011;60030;52.274;8.040;2023-01-19T12:31:37;5.37;;;1.47;;
71366;SDS011;60030;52.274;8.040;2023-01-19T12:36:56;9.07;;;1.70;;
71366;SDS011;60030;52.274;8.040;2023-01-19T12:39:28;6.90;;;2.07;;
71366;SDS011;60030;52.274;8.040;2023-01-19T12:42:05;4.77;;;1.73;;
71366;SDS011;60030;52.274;8.040;2023-01-19T12:44:38;8.77;;;1.93;;
71366;SDS011;60030;52.274;8.040;2023-01-19T12:47:17;11.63;;;1.90;;
71366;SDS011;60030;52.274;8.040;2023-01-19T12:49:47;13.30;;;2.10;;
71366;SDS011;60030;52.274;8.040;2023-01-19T12:52:24;4.93;;;1.80;;
71366;SDS011;60030;52.274;8.040;2023-01-19T12:54:56;6.67;;;2.00;;
71366;SDS011;60030;52.274;8.040;2023-01-19T12:57:28;7.33;;;2.10;;
71366;SDS011;60030;52.274;8.040;2023-01-19T12:59:59;6.80;;;1.60;;
71366;SDS011;60030;52.274;8.040;2023-01-19T13:02:39;8.10;;;1.90;;
71366;SDS011;60030;52.274;8.040;2023-01-19T13:05:18;6.13;;;2.20;;
71366;SDS011;60030;52.274;8.040;2023-01-19T13:08:19;4.70;;;1.47;;
71366;SDS011;60030;52.274;8.040;2023-01-19T13:16:58;9.37;;;2.40;;
71366;SDS011;60030;52.274;8.040;2023-01-19T13:19:47;6.70;;;1.90;;
71366;SDS011;60030;52.274;8.040;2023-01-19T13:25:49;8.23;;;1.80;;
71366;SDS011;60030;52.274;8.040;2023-01-19T13:28:27;5.53;;;1.80;;
71366;SDS011;60030;52.274;8.040;2023-01-19T13:30:57;6.13;;;2.13;;
71366;SDS011;60030;52.274;8.040;2023-01-19T13:33:27;4.40;;;2.37;;
71366;SDS011;60030;52.274;8.040;2023-01-19T13:36:00;7.87;;;1.90;;
71366;SDS011;60030;52.274;8.040;2023-01-19T13:38:27;8.77;;;2.10;;
71366;SDS011;60030;52.274;8.040;2023-01-19T13:40:57;9.70;;;2.33;;
71366;SDS011;60030;52.274;8.040;2023-01-19T13:43:27;10.83;;;2.37;;
71366;SDS011;60030;52.274;8.040;2023-01-19T13:46:00;4.37;;;2.27;;
71366;SDS011;60030;52.274;8.040;2023-01-19T13:48:27;4.27;;;1.80;;
71366;SDS011;60030;52.274;8.040;2023-01-19T13:50:58;8.20;;;2.40;;
71366;SDS011;60030;52.274;8.040;2023-01-19T13:53:29;5.83;;;2.23;;
71366;SDS011;60030;52.274;8.040;2023-01-19T13:56:15;8.43;;;2.90;;
71366;SDS011;60030;52.274;8.040;2023-01-19T14:01:30;15.33;;;3.10;;
71366;SDS011;60030;52.274;8.040;2023-01-19T14:03:57;5.83;;;2.93;;
71366;SDS011;60030;52.274;8.040;2023-01-19T14:06:33;7.57;;;2.80;;
71366;SDS011;60030;52.274;8.040;2023-01-19T14:09:06;7.97;;;2.97;;
71366;SDS011;60030;52.274;8.040;2023-01-19T14:11:39;6.30;;;3.37;;
71366;SDS011;60030;52.274;8.040;2023-01-19T14:14:19;9.17;;;3.43;;
71366;SDS011;60030;52.274;8.040;2023-01-19T14:16:51;10.17;;;3.93;;
71366;SDS011;60030;52.274;8.040;2023-01-19T14:19:19;7.90;;;3.23;;
71366;SDS011;60030;52.274;8.040;2023-01-19T14:21:55;17.30;;;3.80;;
71366;SDS011;60030;52.274;8.040;2023-01-19T14:24:24;8.20;;;3.37;;
71366;SDS011;60030;52.274;8.040;2023-01-19T14:27:05;8.00;;;3.07;;
71366;SDS011;60030;52.274;8.040;2023-01-19T14:29:36;10.47;;;3.23;;
71366;SDS011;60030;52.274;8.040;2023-01-19T14:32:04;9.73;;;4.47;;
71366;SDS011;60030;52.274;8.040;2023-01-19T14:34:40;10.53;;;3.60;;
71366;SDS011;60030;52.274;8.040;2023-01-19T14:37:15;7.43;;;3.63;;
71366;SDS011;60030;52.274;8.040;2023-01-19T14:39:45;6.13;;;3.10;;
71366;SDS011;60030;52.274;8.040;2023-01-19T14:42:18;7.57;;;3.43;;
71366;SDS011;60030;52.274;8.040;2023-01-19T14:44:49;8.30;;;4.13;;
71366;SDS011;60030;52.274;8.040;2023-01-19T14:47:25;9.27;;;3.90;;
71366;SDS011;60030;52.274;8.040;2023-01-19T14:49:54;9.90;;;3.57;;
71366;SDS011;60030;52.274;8.040;2023-01-19T14:52:26;8.47;;;4.30;;
71366;SDS011;60030;52.274;8.040;2023-01-19T14:54:56;10.10;;;4.30;;
71366;SDS011;60030;52.274;8.040;2023-01-19T14:57:27;10.77;;;4.43;;
71366;SDS011;60030;52.274;8.040;2023-01-19T14:59:54;9.53;;;4.03;;
71366;SDS011;60030;52.274;8.040;2023-01-19T15:02:21;9.23;;;4.53;;
71366;SDS011;60030;52.274;8.040;2023-01-19T15:04:48;12.23;;;4.80;;
71366;SDS011;60030;52.274;8.040;2023-01-19T15:07:19;9.60;;;4.87;;
71366;SDS011;60030;52.274;8.040;2023-01-19T15:09:50;10.07;;;4.87;;
71366;SDS011;60030;52.274;8.040;2023-01-19T15:12:17;13.90;;;5.00;;